createdAt,value
2023-04-16T00:01:05.451Z,13.05
2023-04-16T00:03:34.159Z,12.88
2023-04-16T00:06:02.376Z,10.27
2023-04-16T00:08:32.159Z,13.57
2023-04-16T00:11:00.454Z,13.52
2023-04-16T00:13:28.546Z,12.80
2023-04-16T00:15:57.122Z,13.85
2023-04-16T00:18:25.303Z,9.77
2023-04-16T00:20:53.859Z,14.25
2023-04-16T00:23:22.078Z,13.30
2023-04-16T00:25:51.857Z,7.97
2023-04-16T00:28:21.220Z,13.63
2023-04-16T00:30:49.382Z,14.52
2023-04-16T00:33:17.785Z,12.77
2023-04-16T00:35:47.177Z,13.63
2023-04-16T00:38:16.155Z,7.13
2023-04-16T00:40:44.713Z,6.68
2023-04-16T00:43:22.834Z,16.10
2023-04-16T00:45:51.624Z,12.52
2023-04-16T00:48:20.134Z,13.75
2023-04-16T00:50:48.667Z,15.35
2023-04-16T00:53:16.808Z,15.30
2023-04-16T00:55:45.014Z,14.10
2023-04-16T00:58:14.579Z,15.20
2023-04-16T01:00:42.705Z,14.48
2023-04-16T01:03:11.293Z,14.15
2023-04-16T01:05:39.970Z,15.20
2023-04-16T01:08:08.424Z,14.20
2023-04-16T01:10:36.815Z,15.70
2023-04-16T01:13:04.883Z,15.27
2023-04-16T01:15:34.707Z,15.18
2023-04-16T01:18:02.923Z,13.32
2023-04-16T01:20:31.160Z,14.50
2023-04-16T01:23:01.088Z,14.98
2023-04-16T01:25:29.175Z,15.68
2023-04-16T01:27:59.470Z,17.25
2023-04-16T01:30:27.957Z,14.63
2023-04-16T01:32:56.376Z,15.18
2023-04-16T01:35:24.956Z,15.35
2023-04-16T01:37:53.429Z,16.88
2023-04-16T01:40:22.914Z,15.80
2023-04-16T01:42:51.176Z,13.73
2023-04-16T01:45:19.425Z,15.60
2023-04-16T01:47:48.332Z,15.35
2023-04-16T01:50:16.810Z,16.27
2023-04-16T01:52:45.104Z,15.48
2023-04-16T01:55:13.386Z,12.57
2023-04-16T01:57:42.911Z,14.55
2023-04-16T02:00:11.940Z,16.27
2023-04-16T02:02:41.101Z,14.43
2023-04-16T02:05:09.624Z,13.32
2023-04-16T02:07:37.707Z,14.57
2023-04-16T02:10:07.431Z,14.95
2023-04-16T02:12:35.535Z,16.10
2023-04-16T02:15:05.654Z,14.55
2023-04-16T02:17:33.798Z,14.18
2023-04-16T02:20:03.680Z,13.77
2023-04-16T02:22:31.764Z,13.98
2023-04-16T02:24:59.881Z,14.20
2023-04-16T02:27:27.957Z,14.07
2023-04-16T02:29:56.333Z,10.88
2023-04-16T02:32:25.911Z,15.65
2023-04-16T02:34:54.012Z,14.98
2023-04-16T02:37:22.130Z,16.08
2023-04-16T02:39:51.150Z,11.93
2023-04-16T02:42:19.530Z,13.52
2023-04-16T02:44:47.693Z,13.95
2023-04-16T02:47:15.824Z,14.77
2023-04-16T02:49:45.331Z,15.05
2023-04-16T02:52:15.464Z,13.25
2023-04-16T02:54:43.772Z,13.70
2023-04-16T02:57:11.906Z,11.57
2023-04-16T02:59:40.189Z,15.45
2023-04-16T03:02:08.737Z,14.45
2023-04-16T03:04:37.054Z,15.40
2023-04-16T03:07:06.677Z,7.53
2023-04-16T03:09:35.080Z,14.15
2023-04-16T03:12:03.518Z,13.80
2023-04-16T03:14:31.903Z,15.00
2023-04-16T03:17:00.096Z,12.70
2023-04-16T03:19:28.280Z,14.48
2023-04-16T03:21:56.386Z,16.02
2023-04-16T03:24:26.141Z,14.98
2023-04-16T03:26:54.245Z,15.63
2023-04-16T03:29:22.572Z,15.90
2023-04-16T03:31:50.956Z,15.32
2023-04-16T03:34:19.074Z,14.73
2023-04-16T03:36:47.166Z,15.75
2023-04-16T03:39:15.594Z,15.52
2023-04-16T03:41:45.049Z,15.85
2023-04-16T03:44:13.160Z,16.50
2023-04-16T03:46:41.333Z,16.30
2023-04-16T03:49:10.301Z,15.65
2023-04-16T03:51:38.510Z,14.88
2023-04-16T03:54:06.624Z,16.55
2023-04-16T03:56:34.686Z,15.95
2023-04-16T03:59:04.621Z,10.40
2023-04-16T04:01:32.738Z,15.75
2023-04-16T04:04:02.046Z,16.45
2023-04-16T04:06:30.935Z,15.35
2023-04-16T04:08:59.040Z,15.13
2023-04-16T04:11:27.340Z,15.18
2023-04-16T04:13:55.669Z,14.70
2023-04-16T04:16:25.418Z,14.00
2023-04-16T04:18:53.546Z,15.48
2023-04-16T04:21:21.949Z,14.70
2023-04-16T04:23:50.385Z,14.20
2023-04-16T04:26:18.907Z,14.73
2023-04-16T04:28:47.518Z,16.33
2023-04-16T04:31:16.237Z,13.40
2023-04-16T04:33:46.484Z,15.20
2023-04-16T04:36:14.552Z,8.43
2023-04-16T04:38:42.603Z,15.85
2023-04-16T04:41:10.870Z,14.43
2023-04-16T04:43:39.287Z,15.52
2023-04-16T04:46:07.411Z,16.00
2023-04-16T04:48:35.526Z,15.15
2023-04-16T04:51:05.554Z,15.35
2023-04-16T04:53:33.971Z,14.40
2023-04-16T04:56:12.193Z,16.48
2023-04-16T04:58:40.906Z,10.90
2023-04-16T05:01:09.051Z,14.73
2023-04-16T05:03:37.707Z,16.38
2023-04-16T05:06:08.867Z,13.85
2023-04-16T05:08:36.988Z,15.90
2023-04-16T05:11:05.930Z,11.48
2023-04-16T05:13:34.000Z,15.75
2023-04-16T05:16:02.316Z,11.00
2023-04-16T05:18:31.450Z,14.32
2023-04-16T05:20:59.895Z,15.40
2023-04-16T05:23:29.745Z,14.27
2023-04-16T05:25:57.932Z,14.85
2023-04-16T05:28:26.054Z,14.77
2023-04-16T05:30:54.185Z,15.02
2023-04-16T05:33:22.606Z,14.73
2023-04-16T05:35:51.335Z,15.32
2023-04-16T05:38:19.462Z,15.27
2023-04-16T05:40:49.208Z,14.73
2023-04-16T05:43:17.307Z,16.00
2023-04-16T05:45:45.533Z,13.48
2023-04-16T05:48:13.915Z,16.30
2023-04-16T05:50:41.993Z,15.63
2023-04-16T05:53:11.274Z,14.65
2023-04-16T05:55:39.363Z,15.10
2023-04-16T05:58:09.172Z,13.30
2023-04-16T06:00:37.469Z,15.88
2023-04-16T06:03:06.022Z,14.27
2023-04-16T06:05:34.685Z,14.48
2023-04-16T06:08:02.792Z,15.00
2023-04-16T06:10:30.963Z,12.85
2023-04-16T06:12:59.045Z,15.70
2023-04-16T06:15:28.954Z,14.80
2023-04-16T06:17:59.456Z,14.60
2023-04-16T06:20:29.539Z,14.38
2023-04-16T06:22:58.190Z,14.55
2023-04-16T06:25:26.586Z,17.23
2023-04-16T06:27:54.655Z,15.10
2023-04-16T06:30:23.028Z,13.85
2023-04-16T06:32:52.632Z,13.82
2023-04-16T06:35:21.179Z,15.30
2023-04-16T06:37:49.236Z,15.25
2023-04-16T06:40:17.804Z,15.43
2023-04-16T06:42:46.074Z,13.57
2023-04-16T06:45:14.725Z,14.30
2023-04-16T06:47:42.870Z,15.07
2023-04-16T06:50:12.954Z,13.13
2023-04-16T06:52:41.867Z,15.32
2023-04-16T06:55:10.678Z,14.95
2023-04-16T06:57:41.017Z,14.35
2023-04-16T07:00:10.550Z,14.80
2023-04-16T07:02:38.756Z,14.85
2023-04-16T07:05:07.488Z,14.00
2023-04-16T07:07:37.056Z,13.35
2023-04-16T07:10:05.860Z,14.85
2023-04-16T07:12:34.188Z,14.35
2023-04-16T07:15:02.310Z,11.60
2023-04-16T07:17:30.741Z,14.00
2023-04-16T07:19:58.846Z,14.45
2023-04-16T07:22:27.036Z,13.55
2023-04-16T07:24:56.521Z,13.48
2023-04-16T07:27:25.016Z,14.35
2023-04-16T07:29:53.161Z,12.93
2023-04-16T07:32:22.608Z,14.45
2023-04-16T07:34:51.489Z,15.10
2023-04-16T07:37:20.036Z,14.20
2023-04-16T07:39:48.711Z,13.25
2023-04-16T07:42:18.229Z,13.40
2023-04-16T07:44:46.460Z,14.57
2023-04-16T07:47:14.541Z,14.82
2023-04-16T07:49:43.067Z,18.35
2023-04-16T07:52:11.522Z,18.33
2023-04-16T07:54:39.618Z,15.55
2023-04-16T07:57:07.737Z,15.80
2023-04-16T07:59:37.165Z,16.55
2023-04-16T08:02:06.341Z,15.77
2023-04-16T08:04:34.932Z,14.73
2023-04-16T08:07:03.122Z,14.82
2023-04-16T08:09:31.433Z,14.95
2023-04-16T08:12:01.193Z,16.52
2023-04-16T08:14:29.323Z,17.25
2023-04-16T08:16:58.997Z,14.43
2023-04-16T08:19:27.070Z,14.10
2023-04-16T08:21:55.862Z,21.35
2023-04-16T08:24:24.056Z,23.88
2023-04-16T08:26:52.727Z,27.63
2023-04-16T08:29:21.730Z,17.75
2023-04-16T08:31:49.881Z,16.08
2023-04-16T08:34:19.858Z,13.88
2023-04-16T08:36:48.015Z,16.30
2023-04-16T08:39:16.199Z,15.00
2023-04-16T08:41:47.834Z,16.38
2023-04-16T08:44:21.574Z,13.68
2023-04-16T08:46:50.649Z,16.02
2023-04-16T08:49:20.097Z,15.45
2023-04-16T08:51:53.543Z,13.82
2023-04-16T08:54:37.304Z,14.20
2023-04-16T08:57:08.404Z,14.40
2023-04-16T08:59:37.976Z,15.65
2023-04-16T09:02:07.916Z,15.18
2023-04-16T09:04:39.341Z,13.90
2023-04-16T09:07:09.796Z,15.93
2023-04-16T09:09:40.269Z,15.15
2023-04-16T09:12:09.873Z,14.02
2023-04-16T09:14:41.871Z,16.55
2023-04-16T09:17:10.883Z,13.00
2023-04-16T09:19:40.365Z,15.32
2023-04-16T09:22:08.830Z,14.02
2023-04-16T09:24:38.472Z,14.07
2023-04-16T09:27:06.705Z,13.73
2023-04-16T09:29:37.045Z,12.55
2023-04-16T09:32:06.677Z,14.23
2023-04-16T09:34:35.752Z,13.75
2023-04-16T09:37:18.375Z,15.20
2023-04-16T09:39:53.536Z,14.30
2023-04-16T09:42:23.746Z,14.75
2023-04-16T09:44:52.373Z,15.10
2023-04-16T09:47:21.020Z,14.70
2023-04-16T09:49:50.125Z,15.35
2023-04-16T09:52:22.104Z,13.68
2023-04-16T09:54:51.553Z,13.07
2023-04-16T09:57:23.168Z,14.38
2023-04-16T09:59:54.421Z,14.93
2023-04-16T10:02:23.784Z,14.70
2023-04-16T10:04:53.895Z,13.82
2023-04-16T10:07:23.740Z,14.50
2023-04-16T10:09:52.681Z,13.20
2023-04-16T10:12:21.709Z,13.75
2023-04-16T10:14:50.630Z,13.80
2023-04-16T10:17:19.732Z,12.95
2023-04-16T10:19:48.160Z,14.25
2023-04-16T10:22:17.019Z,13.77
2023-04-16T10:24:48.165Z,12.75
2023-04-16T10:27:17.580Z,14.60
2023-04-16T10:29:46.756Z,10.77
2023-04-16T10:32:16.047Z,13.63
2023-04-16T10:34:44.497Z,13.50
2023-04-16T10:37:12.951Z,11.98
2023-04-16T10:39:41.036Z,13.18
2023-04-16T10:42:12.859Z,13.23
2023-04-16T10:44:45.062Z,12.45
2023-04-16T10:47:15.179Z,11.95
2023-04-16T10:49:43.872Z,13.85
2023-04-16T10:52:13.531Z,12.93
2023-04-16T10:54:42.230Z,13.30
2023-04-16T10:57:19.100Z,10.52
2023-04-16T10:59:47.508Z,12.82
2023-04-16T11:02:18.319Z,12.23
2023-04-16T11:04:47.923Z,13.23
2023-04-16T11:07:18.966Z,12.48
2023-04-16T11:09:51.881Z,13.88
2023-04-16T11:12:22.471Z,11.27
2023-04-16T11:14:52.467Z,10.55
2023-04-16T11:17:21.536Z,11.23
2023-04-16T11:19:49.908Z,12.70
2023-04-16T11:22:22.132Z,11.40
2023-04-16T11:24:56.303Z,11.90
2023-04-16T11:27:26.466Z,12.00
2023-04-16T11:30:02.323Z,13.10
2023-04-16T11:32:33.224Z,10.18
2023-04-16T11:35:03.903Z,12.63
2023-04-16T11:37:36.137Z,10.45
2023-04-16T11:40:07.209Z,12.60
2023-04-16T11:42:37.931Z,11.90
2023-04-16T11:45:06.669Z,11.35
2023-04-16T11:47:45.803Z,14.30
2023-04-16T11:50:18.737Z,10.85
2023-04-16T11:52:47.279Z,10.75
2023-04-16T11:55:15.569Z,11.60
2023-04-16T11:57:46.275Z,10.63
2023-04-16T12:00:15.367Z,11.30
2023-04-16T12:02:44.846Z,11.07
2023-04-16T12:05:29.133Z,11.35
2023-04-16T12:07:58.289Z,10.63
2023-04-16T12:10:27.114Z,11.07
2023-04-16T12:13:10.785Z,10.45
2023-04-16T12:15:46.204Z,11.02
2023-04-16T12:18:14.680Z,10.25
2023-04-16T12:20:43.665Z,10.77
2023-04-16T12:23:23.063Z,10.02
2023-04-16T12:25:52.725Z,7.82
2023-04-16T12:28:33.142Z,9.73
2023-04-16T12:31:02.053Z,10.90
2023-04-16T12:33:30.695Z,9.30
2023-04-16T12:35:59.476Z,8.93
2023-04-16T12:38:28.653Z,9.05
2023-04-16T12:40:58.431Z,8.88
2023-04-16T12:43:27.115Z,7.95
2023-04-16T12:45:56.612Z,7.45
2023-04-16T12:48:24.782Z,7.65
2023-04-16T12:50:55.417Z,7.28
2023-04-16T12:53:23.529Z,7.60
2023-04-16T12:55:51.657Z,7.35
2023-04-16T12:58:19.767Z,7.28
2023-04-16T13:00:48.217Z,7.50
2023-04-16T13:03:17.955Z,7.05
2023-04-16T13:05:46.449Z,6.72
2023-04-16T13:08:14.603Z,6.32
2023-04-16T13:10:43.256Z,6.00
2023-04-16T13:13:11.371Z,5.93
2023-04-16T13:15:39.483Z,5.70
2023-04-16T13:18:07.662Z,5.50
2023-04-16T13:20:37.124Z,4.80
2023-04-16T13:23:05.561Z,5.90
2023-04-16T13:25:33.678Z,5.10
2023-04-16T13:28:02.200Z,5.93
2023-04-16T13:30:30.706Z,6.40
2023-04-16T13:32:59.159Z,5.28
2023-04-16T13:35:27.759Z,3.85
2023-04-16T13:37:57.212Z,6.90
2023-04-16T13:40:25.475Z,5.55
2023-04-16T13:42:53.544Z,5.50
2023-04-16T13:45:21.629Z,6.40
2023-04-16T13:47:49.838Z,6.47
2023-04-16T13:50:18.212Z,7.15
2023-04-16T13:52:46.658Z,7.57
2023-04-16T13:55:19.167Z,7.25
2023-04-16T13:57:48.334Z,7.25
2023-04-16T14:00:17.736Z,7.30
2023-04-16T14:02:48.700Z,6.53
2023-04-16T14:05:17.072Z,7.50
2023-04-16T14:07:45.142Z,3.78
2023-04-16T14:10:13.463Z,7.63
2023-04-16T14:12:44.729Z,7.32
2023-04-16T14:15:15.164Z,7.38
2023-04-16T14:17:44.145Z,7.38
2023-04-16T14:20:14.106Z,8.25
2023-04-16T14:22:43.924Z,7.50
2023-04-16T14:25:12.028Z,8.32
2023-04-16T14:27:41.502Z,7.10
2023-04-16T14:30:11.679Z,6.82
2023-04-16T14:32:40.142Z,7.20
2023-04-16T14:35:09.323Z,7.28
2023-04-16T14:37:38.485Z,8.13
2023-04-16T14:40:09.172Z,7.50
2023-04-16T14:42:37.838Z,6.75
2023-04-16T14:45:07.374Z,7.65
2023-04-16T14:47:42.785Z,6.65
2023-04-16T14:50:11.710Z,6.15
2023-04-16T14:52:40.082Z,7.35
2023-04-16T14:55:08.596Z,5.78
2023-04-16T14:57:37.037Z,7.32
2023-04-16T15:00:07.920Z,6.35
2023-04-16T15:02:38.201Z,6.28
2023-04-16T15:05:07.924Z,7.15
2023-04-16T15:07:36.155Z,6.07
2023-04-16T15:10:05.154Z,7.10
2023-04-16T15:12:33.280Z,6.70
2023-04-16T15:15:01.673Z,7.20
2023-04-16T15:17:29.825Z,6.63
2023-04-16T15:19:59.369Z,6.57
2023-04-16T15:22:27.987Z,6.13
2023-04-16T15:24:56.051Z,6.57
2023-04-16T15:27:24.115Z,6.60
2023-04-16T15:29:53.972Z,6.68
2023-04-16T15:32:22.161Z,7.00
2023-04-16T15:34:50.431Z,6.78
2023-04-16T15:37:19.880Z,6.93
2023-04-16T15:39:47.992Z,6.80
2023-04-16T15:42:16.293Z,7.03
2023-04-16T15:44:44.664Z,6.40
2023-04-16T15:47:12.758Z,5.25
2023-04-16T15:49:41.296Z,7.38
2023-04-16T15:52:09.854Z,6.63
2023-04-16T15:54:39.448Z,7.18
2023-04-16T15:57:07.536Z,6.68
2023-04-16T15:59:35.662Z,7.35
2023-04-16T16:02:04.212Z,6.60
2023-04-16T16:04:32.496Z,6.68
2023-04-16T16:07:02.820Z,5.93
2023-04-16T16:09:30.991Z,5.70
2023-04-16T16:12:00.761Z,5.53
2023-04-16T16:14:28.852Z,6.10
2023-04-16T16:16:57.289Z,6.53
2023-04-16T16:19:25.368Z,6.57
2023-04-16T16:21:53.876Z,6.28
2023-04-16T16:24:22.224Z,7.00
2023-04-16T16:26:50.362Z,5.30
2023-04-16T16:29:19.845Z,4.30
2023-04-16T16:31:48.271Z,6.38
2023-04-16T16:34:20.950Z,1.95
2023-04-16T16:36:49.866Z,7.47
2023-04-16T16:39:18.245Z,5.93
2023-04-16T16:41:47.546Z,6.97
2023-04-16T16:44:15.757Z,6.43
2023-04-16T16:46:45.665Z,6.82
2023-04-16T16:49:13.821Z,6.07
2023-04-16T16:51:41.912Z,5.68
2023-04-16T16:54:10.055Z,7.78
2023-04-16T16:56:38.173Z,8.27
2023-04-16T16:59:07.701Z,6.90
2023-04-16T17:01:36.104Z,7.30
2023-04-16T17:04:06.022Z,6.95
2023-04-16T17:06:34.997Z,6.60
2023-04-16T17:09:03.417Z,5.60
2023-04-16T17:11:31.824Z,6.13
2023-04-16T17:13:59.950Z,6.88
2023-04-16T17:16:28.400Z,6.82
2023-04-16T17:18:57.206Z,6.85
2023-04-16T17:21:28.238Z,7.32
2023-04-16T17:23:58.097Z,7.60
2023-04-16T17:26:26.317Z,7.15
2023-04-16T17:28:54.848Z,6.93
2023-04-16T17:31:23.917Z,6.75
2023-04-16T17:33:53.093Z,7.30
2023-04-16T17:36:23.338Z,7.00
2023-04-16T17:38:52.801Z,6.93
2023-04-16T17:41:21.068Z,7.13
2023-04-16T17:43:49.905Z,6.72
2023-04-16T17:46:18.520Z,6.53
2023-04-16T17:48:48.235Z,6.30
2023-04-16T17:51:16.684Z,6.22
2023-04-16T17:53:45.099Z,6.93
2023-04-16T17:56:15.217Z,7.25
2023-04-16T17:58:43.398Z,7.05
2023-04-16T18:01:11.905Z,6.55
2023-04-16T18:03:42.110Z,7.28
2023-04-16T18:06:10.497Z,7.15
2023-04-16T18:08:38.734Z,6.82
2023-04-16T18:11:10.115Z,6.80
2023-04-16T18:13:39.663Z,7.00
2023-04-16T18:16:14.601Z,6.40
2023-04-16T18:18:42.820Z,6.68
2023-04-16T18:21:11.202Z,6.88
2023-04-16T18:23:39.348Z,6.32
2023-04-16T18:26:09.390Z,6.45
2023-04-16T18:28:40.097Z,6.22
2023-04-16T18:31:08.329Z,6.75
2023-04-16T18:33:54.152Z,6.57
2023-04-16T18:36:25.000Z,6.95
2023-04-16T18:39:01.701Z,7.00
2023-04-16T18:41:31.005Z,7.15
2023-04-16T18:44:00.628Z,7.28
2023-04-16T18:46:28.913Z,6.47
2023-04-16T18:48:59.063Z,6.55
2023-04-16T18:51:27.500Z,6.05
2023-04-16T18:53:55.715Z,6.82
2023-04-16T18:56:23.854Z,7.25
2023-04-16T18:58:51.977Z,7.25
2023-04-16T19:01:21.641Z,7.32
2023-04-16T19:03:49.828Z,7.43
2023-04-16T19:06:18.297Z,7.38
2023-04-16T19:08:46.469Z,7.05
2023-04-16T19:11:15.033Z,7.38
2023-04-16T19:13:43.768Z,6.90
2023-04-16T19:16:12.780Z,6.32
2023-04-16T19:18:42.683Z,6.25
2023-04-16T19:21:12.378Z,5.75
2023-04-16T19:23:40.654Z,5.85
2023-04-16T19:26:08.804Z,6.00
2023-04-16T19:28:39.085Z,6.28
2023-04-16T19:31:07.368Z,6.70
2023-04-16T19:33:36.133Z,6.32
2023-04-16T19:36:06.090Z,5.68
2023-04-16T19:38:34.410Z,5.85
2023-04-16T19:41:02.544Z,6.90
2023-04-16T19:43:31.174Z,6.07
2023-04-16T19:45:59.503Z,5.80
2023-04-16T19:48:27.818Z,6.20
2023-04-16T19:50:55.942Z,6.22
2023-04-16T19:53:25.770Z,5.93
2023-04-16T19:55:54.004Z,6.47
2023-04-16T19:58:22.077Z,6.40
2023-04-16T20:00:50.280Z,5.75
2023-04-16T20:03:18.462Z,6.45
2023-04-16T20:05:49.476Z,7.10
2023-04-16T20:08:17.660Z,6.22
2023-04-16T20:10:47.140Z,6.50
2023-04-16T20:13:17.319Z,6.47
2023-04-16T20:15:47.254Z,5.65
2023-04-16T20:18:15.400Z,6.30
2023-04-16T20:20:43.500Z,6.07
2023-04-16T20:23:11.674Z,6.90
2023-04-16T20:25:42.515Z,6.45
2023-04-16T20:28:12.219Z,6.65
2023-04-16T20:30:40.354Z,6.68
2023-04-16T20:33:09.016Z,7.00
2023-04-16T20:35:37.510Z,6.22
2023-04-16T20:38:05.637Z,6.38
2023-04-16T20:40:34.132Z,6.85
2023-04-16T20:43:02.213Z,7.03
2023-04-16T20:45:38.033Z,6.05
2023-04-16T20:48:06.689Z,7.72
2023-04-16T20:50:34.993Z,6.85
2023-04-16T20:53:03.506Z,7.15
2023-04-16T20:55:31.619Z,7.68
2023-04-16T20:57:59.718Z,7.40
2023-04-16T21:00:28.357Z,7.18
2023-04-16T21:02:58.290Z,7.47
2023-04-16T21:05:26.897Z,7.50
2023-04-16T21:07:55.915Z,7.57
2023-04-16T21:10:24.051Z,7.47
2023-04-16T21:12:52.369Z,7.88
2023-04-16T21:15:20.502Z,7.53
2023-04-16T21:17:48.595Z,6.78
2023-04-16T21:20:18.486Z,7.55
2023-04-16T21:22:46.981Z,5.97
2023-04-16T21:25:15.246Z,7.47
2023-04-16T21:27:43.332Z,7.97
2023-04-16T21:30:12.543Z,8.63
2023-04-16T21:32:40.658Z,8.32
2023-04-16T21:35:09.582Z,7.10
2023-04-16T21:37:39.244Z,6.38
2023-04-16T21:40:08.923Z,8.15
2023-04-16T21:42:39.767Z,8.95
2023-04-16T21:45:09.550Z,8.40
2023-04-16T21:47:38.157Z,8.52
2023-04-16T21:50:07.155Z,8.88
2023-04-16T21:52:40.750Z,8.60
2023-04-16T21:55:11.290Z,8.10
2023-04-16T21:57:39.356Z,8.40
2023-04-16T22:00:13.573Z,8.45
2023-04-16T22:02:43.379Z,7.50
2023-04-16T22:05:12.185Z,7.57
2023-04-16T22:07:40.586Z,8.00
2023-04-16T22:10:13.536Z,7.47
2023-04-16T22:12:44.752Z,8.52
2023-04-16T22:15:14.492Z,7.97
2023-04-16T22:17:42.652Z,7.93
2023-04-16T22:20:13.269Z,8.45
2023-04-16T22:22:41.601Z,7.22
2023-04-16T22:25:12.432Z,8.13
2023-04-16T22:27:40.743Z,9.07
2023-04-16T22:30:09.954Z,7.13
2023-04-16T22:32:38.482Z,8.50
2023-04-16T22:35:07.295Z,7.57
2023-04-16T22:37:35.747Z,7.50
2023-04-16T22:40:08.429Z,7.57
2023-04-16T22:42:38.325Z,7.80
2023-04-16T22:45:07.957Z,7.15
2023-04-16T22:47:36.173Z,6.57
2023-04-16T22:50:04.992Z,7.95
2023-04-16T22:52:33.426Z,7.13
2023-04-16T22:55:01.539Z,8.25
2023-04-16T22:57:29.662Z,6.78
2023-04-16T22:59:59.606Z,8.10
2023-04-16T23:02:28.006Z,7.57
2023-04-16T23:04:56.112Z,7.80
2023-04-16T23:07:24.487Z,6.28
2023-04-16T23:09:52.596Z,7.35
2023-04-16T23:12:20.977Z,8.10
2023-04-16T23:14:49.501Z,7.50
2023-04-16T23:17:18.938Z,7.35
2023-04-16T23:19:47.056Z,6.65
2023-04-16T23:22:15.435Z,7.50
2023-04-16T23:24:43.493Z,7.32
2023-04-16T23:27:12.180Z,8.23
2023-04-16T23:29:40.482Z,8.10
2023-04-16T23:32:08.567Z,7.88
2023-04-16T23:34:38.037Z,8.80
2023-04-16T23:37:06.157Z,7.57
2023-04-16T23:39:34.652Z,8.02
2023-04-16T23:42:03.183Z,8.05
2023-04-16T23:44:31.338Z,8.18
2023-04-16T23:46:59.880Z,7.32
2023-04-16T23:49:28.388Z,8.20
2023-04-16T23:51:58.170Z,8.32
2023-04-16T23:54:26.294Z,8.75
2023-04-16T23:56:54.719Z,7.78
2023-04-16T23:59:24.118Z,7.93
